createdAt,value
2022-11-12T00:01:40.386Z,101490.73
2022-11-12T00:04:26.395Z,101488.54
2022-11-12T00:07:15.498Z,101490.52
2022-11-12T00:10:01.894Z,101491.75
2022-11-12T00:12:52.187Z,101490.20
2022-11-12T00:15:38.367Z,101490.85
2022-11-12T00:18:24.156Z,101493.48
2022-11-12T00:21:09.933Z,101493.92
2022-11-12T00:23:55.616Z,101503.36
2022-11-12T00:26:41.958Z,101502.83
2022-11-12T00:29:27.581Z,101499.45
2022-11-12T00:32:13.152Z,101501.46
2022-11-12T00:35:02.462Z,101499.11
2022-11-12T00:37:53.869Z,101500.73
2022-11-12T00:40:41.816Z,101497.81
2022-11-12T00:43:30.766Z,101498.84
2022-11-12T00:46:16.716Z,101503.00
2022-11-12T00:49:08.529Z,101506.21
2022-11-12T00:51:54.947Z,101503.45
2022-11-12T00:54:41.888Z,101501.73
2022-11-12T00:57:28.049Z,101501.30
2022-11-12T01:00:19.405Z,101501.95
2022-11-12T01:03:05.247Z,101502.19
2022-11-12T01:05:51.370Z,101500.69
2022-11-12T01:08:39.545Z,101499.39
2022-11-12T01:11:28.926Z,101501.91
2022-11-12T01:14:14.961Z,101500.48
2022-11-12T01:17:01.777Z,101502.63
2022-11-12T01:19:55.557Z,101506.64
2022-11-12T01:22:41.290Z,101509.23
2022-11-12T01:25:30.344Z,101510.81
2022-11-12T01:28:16.474Z,101510.63
2022-11-12T01:31:16.735Z,101517.30
2022-11-12T01:34:08.620Z,101516.00
2022-11-12T01:36:55.611Z,101517.69
2022-11-12T01:39:42.961Z,101515.23
2022-11-12T01:42:35.063Z,101513.80
2022-11-12T01:45:21.980Z,101512.14
2022-11-12T01:48:24.060Z,101515.98
2022-11-12T01:54:51.996Z,101519.10
2022-11-12T01:57:42.956Z,101524.33
2022-11-12T02:21:02.975Z,101522.58
2022-11-12T02:28:00.065Z,101535.84
2022-11-12T02:34:40.795Z,101537.34
2022-11-12T02:37:26.690Z,101540.86
2022-11-12T02:40:14.845Z,101536.45
2022-11-12T02:43:02.522Z,101538.08
2022-11-12T02:45:49.381Z,101537.23
2022-11-12T02:48:36.464Z,101538.42
2022-11-12T02:51:22.595Z,101544.31
2022-11-12T02:57:39.638Z,101542.05
2022-11-12T03:00:25.552Z,101538.76
2022-11-12T03:09:51.248Z,101550.13
2022-11-12T03:12:37.074Z,101543.73
2022-11-12T03:15:24.695Z,101544.17
2022-11-12T03:18:16.852Z,101540.91
2022-11-12T03:21:04.584Z,101543.48
2022-11-12T03:23:52.336Z,101544.23
2022-11-12T03:26:39.913Z,101541.14
2022-11-12T03:29:26.582Z,101538.09
2022-11-12T03:32:13.537Z,101547.16
2022-11-12T03:34:59.359Z,101551.71
2022-11-12T03:40:15.979Z,101548.02
2022-11-12T03:43:02.475Z,101549.55
2022-11-12T03:45:48.346Z,101548.68
2022-11-12T03:49:21.977Z,101549.85
2022-11-12T03:52:55.975Z,101549.88
2022-11-12T04:19:46.965Z,101545.48
2022-11-12T04:22:32.742Z,101547.20
2022-11-12T04:56:49.190Z,101550.67
2022-11-12T05:03:11.153Z,101554.92
2022-11-12T05:09:44.817Z,101545.15
2022-11-12T05:44:19.248Z,101556.13
2022-11-12T05:47:07.082Z,101552.02
2022-11-12T06:00:43.652Z,101563.70
2022-11-12T06:03:29.773Z,101567.02
2022-11-12T06:06:15.673Z,101568.77
2022-11-12T06:09:01.385Z,101575.19
2022-11-12T06:11:49.940Z,101572.39
2022-11-12T06:14:35.726Z,101577.02
2022-11-12T06:17:23.344Z,101580.23
2022-11-12T06:20:11.115Z,101580.43
2022-11-12T06:22:57.075Z,101583.63
2022-11-12T06:25:43.387Z,101589.96
2022-11-12T06:28:30.256Z,101594.61
2022-11-12T06:31:16.367Z,101595.92
2022-11-12T06:34:02.831Z,101592.81
2022-11-12T06:36:49.216Z,101594.11
2022-11-12T06:39:35.073Z,101594.06
2022-11-12T06:42:21.227Z,101600.95
2022-11-12T06:45:08.080Z,101597.90
2022-11-12T06:47:58.416Z,101599.62
2022-11-12T06:50:46.460Z,101604.64
2022-11-12T06:53:32.060Z,101609.36
2022-11-12T06:56:18.470Z,101613.86
2022-11-12T06:59:04.756Z,101620.09
2022-11-12T07:01:52.236Z,101615.02
2022-11-12T07:04:38.398Z,101615.88
2022-11-12T07:07:24.520Z,101617.55
2022-11-12T07:10:11.097Z,101618.72
2022-11-12T07:23:28.006Z,101619.80
2022-11-12T07:26:18.674Z,101623.90
2022-11-12T07:29:10.296Z,101632.92
2022-11-12T07:31:59.688Z,101632.23
2022-11-12T07:34:47.252Z,101629.40
2022-11-12T07:37:36.146Z,101633.02
2022-11-12T07:53:59.964Z,101622.80
2022-11-12T07:56:46.936Z,101618.92
2022-11-12T09:12:23.409Z,101671.77
2022-11-12T09:35:59.511Z,101684.58
2022-11-12T09:38:47.162Z,101687.64
2022-11-12T09:41:37.771Z,101681.73
2022-11-12T09:44:24.968Z,101685.77
2022-11-12T09:47:26.629Z,101689.91
2022-11-12T09:50:25.858Z,101685.61
2022-11-12T09:53:18.820Z,101688.58
2022-11-12T09:56:12.710Z,101697.08
2022-11-12T09:58:58.893Z,101687.70
2022-11-12T10:02:02.769Z,101689.89
2022-11-12T10:04:54.779Z,101698.45
2022-11-12T10:07:52.152Z,101684.68
2022-11-12T10:10:42.090Z,101685.77
2022-11-12T10:13:38.580Z,101691.50
2022-11-12T10:16:42.550Z,101698.84
2022-11-12T10:19:56.326Z,101676.14
2022-11-12T10:22:57.303Z,101684.70
2022-11-12T10:25:46.090Z,101679.27
2022-11-12T10:28:39.985Z,101686.22
2022-11-12T10:31:25.880Z,101679.98
2022-11-12T10:34:18.799Z,101682.77
2022-11-12T10:37:12.679Z,101671.79
2022-11-12T10:39:58.676Z,101674.85
2022-11-12T10:43:04.700Z,101672.09
2022-11-12T10:45:52.098Z,101672.70
2022-11-12T10:48:41.318Z,101661.02
2022-11-12T10:51:35.635Z,101671.11
2022-11-12T10:54:28.152Z,101655.34
2022-11-12T10:57:26.256Z,101656.60
2022-11-12T11:00:21.315Z,101654.77
2022-11-12T11:03:19.241Z,101661.26
2022-11-12T11:06:23.190Z,101650.95
2022-11-12T11:09:17.442Z,101652.54
2022-11-12T11:12:23.171Z,101648.07
2022-11-12T11:15:13.571Z,101651.20
2022-11-12T11:18:00.180Z,101650.14
2022-11-12T11:21:03.030Z,101658.09
2022-11-12T11:23:57.863Z,101652.61
2022-11-12T11:27:13.009Z,101656.23
2022-11-12T11:30:14.520Z,101647.30
2022-11-12T11:33:25.450Z,101645.23
2022-11-12T11:36:23.538Z,101644.86
2022-11-12T11:39:39.862Z,101642.33
2022-11-12T11:42:35.402Z,101649.79
2022-11-12T11:46:01.156Z,101643.98
2022-11-12T11:49:17.211Z,101647.05
2022-11-12T11:52:20.561Z,101643.00
2022-11-12T11:55:31.217Z,101644.81
2022-11-12T11:59:04.042Z,101648.27
2022-11-12T12:02:03.435Z,101644.77
2022-11-12T12:04:55.851Z,101646.06
2022-11-12T12:08:13.902Z,101645.44
2022-11-12T12:11:09.052Z,101646.05
2022-11-12T12:14:13.622Z,101650.37
2022-11-12T12:17:07.743Z,101645.30
2022-11-12T12:20:03.393Z,101648.30
2022-11-12T12:22:51.125Z,101645.09
2022-11-12T12:25:41.216Z,101650.16
2022-11-12T12:28:37.651Z,101648.34
2022-11-12T12:31:31.127Z,101652.67
2022-11-12T12:34:28.811Z,101650.50
2022-11-12T12:37:27.097Z,101651.15
2022-11-12T12:40:27.014Z,101651.68
2022-11-12T12:43:19.399Z,101655.37
2022-11-12T12:46:06.663Z,101653.34
2022-11-12T12:48:53.965Z,101656.80
2022-11-12T12:51:42.294Z,101656.10
2022-11-12T12:54:49.676Z,101657.96
2022-11-12T12:57:36.356Z,101651.84
2022-11-12T13:00:32.583Z,101654.80
2022-11-12T13:03:46.314Z,101654.11
2022-11-12T13:06:39.663Z,101652.80
2022-11-12T13:09:27.414Z,101655.56
2022-11-12T13:12:17.111Z,101652.91
2022-11-12T13:15:15.700Z,101651.41
2022-11-12T13:18:01.816Z,101653.30
2022-11-12T13:21:11.661Z,101661.80
2022-11-12T13:24:06.987Z,101668.44
2022-11-12T13:26:56.087Z,101665.67
2022-11-12T13:29:44.073Z,101668.63
2022-11-12T13:32:32.192Z,101668.02
2022-11-12T13:35:34.448Z,101671.72
2022-11-12T13:38:22.774Z,101673.19
2022-11-12T13:41:19.431Z,101671.04
2022-11-12T13:44:09.668Z,101675.83
2022-11-12T13:46:56.965Z,101682.50
2022-11-12T13:49:46.768Z,101685.90
2022-11-12T13:52:34.407Z,101688.69
2022-11-12T13:55:29.707Z,101686.34
2022-11-12T13:58:35.835Z,101680.95
2022-11-12T14:01:24.823Z,101670.48
2022-11-12T14:04:14.263Z,101667.88
2022-11-12T14:07:17.732Z,101675.64
2022-11-12T14:11:04.593Z,101682.70
2022-11-12T14:15:07.279Z,101673.77
2022-11-12T14:18:24.050Z,101666.44
2022-11-12T14:21:23.117Z,101666.86
2022-11-12T14:24:13.190Z,101669.61
2022-11-12T14:27:02.128Z,101677.16
2022-11-12T14:29:50.346Z,101683.24
2022-11-12T14:32:40.850Z,101684.02
2022-11-12T14:35:35.809Z,101686.93
2022-11-12T14:38:28.153Z,101691.55
2022-11-12T14:41:33.382Z,101702.14
2022-11-12T14:44:23.857Z,101695.65
2022-11-12T14:47:10.936Z,101693.61
2022-11-12T14:49:59.137Z,101687.82
2022-11-12T14:52:49.551Z,101692.64
2022-11-12T14:55:40.393Z,101699.30
2022-11-12T14:58:27.674Z,101696.73
2022-11-12T15:04:52.262Z,101706.83
2022-11-12T15:07:54.657Z,101704.88
2022-11-12T15:10:44.890Z,101708.84
2022-11-12T15:13:40.183Z,101711.27
2022-11-12T15:16:30.321Z,101699.56
2022-11-12T15:19:25.663Z,101703.94
2022-11-12T15:22:21.876Z,101711.36
2022-11-12T15:25:20.831Z,101707.95
2022-11-12T15:28:24.430Z,101709.34
2022-11-12T15:31:23.466Z,101706.98
2022-11-12T15:34:39.006Z,101712.05
2022-11-12T15:37:27.416Z,101712.59
2022-11-12T15:40:20.605Z,101714.33
2022-11-12T15:43:14.879Z,101712.23
2022-11-12T15:46:02.246Z,101720.05
2022-11-12T15:48:54.525Z,101713.92
2022-11-12T15:51:42.124Z,101719.98
2022-11-12T15:54:32.268Z,101724.20
2022-11-12T15:57:25.001Z,101728.89
2022-11-12T16:00:18.382Z,101723.98
2022-11-12T16:03:13.164Z,101724.17
2022-11-12T16:06:05.508Z,101721.30
2022-11-12T16:08:58.139Z,101719.23
2022-11-12T16:11:43.940Z,101722.77
2022-11-12T16:19:26.734Z,101722.66
2022-11-12T16:22:14.630Z,101721.88
2022-11-12T16:25:03.218Z,101722.73
2022-11-12T16:27:55.567Z,101725.15
2022-11-12T16:30:43.256Z,101731.88
2022-11-12T16:33:29.680Z,101732.10
2022-11-12T16:36:19.479Z,101730.36
2022-11-12T16:39:06.412Z,101734.17
2022-11-12T16:41:52.336Z,101739.73
2022-11-12T16:44:38.324Z,101745.02
2022-11-12T16:47:26.122Z,101739.52
2022-11-12T16:50:14.516Z,101740.52
2022-11-12T16:53:01.387Z,101740.90
2022-11-12T16:55:47.201Z,101738.46
2022-11-12T16:58:34.967Z,101742.20
2022-11-12T17:01:28.787Z,101733.85
2022-11-12T17:04:15.191Z,101728.34
2022-11-12T17:07:01.099Z,101735.48
2022-11-12T17:09:47.227Z,101739.41
2022-11-12T17:12:34.928Z,101736.69
2022-11-12T17:19:52.412Z,101742.59
2022-11-12T17:22:39.797Z,101737.20
2022-11-12T17:25:27.392Z,101742.73
2022-11-12T17:28:13.451Z,101738.14
2022-11-12T17:31:15.179Z,101741.91
2022-11-12T17:34:05.178Z,101736.23
2022-11-12T17:36:52.279Z,101742.89
2022-11-12T17:39:41.037Z,101741.06
2022-11-12T17:42:28.748Z,101734.84
2022-11-12T17:45:16.766Z,101741.90
2022-11-12T17:48:05.612Z,101739.18
2022-11-12T17:51:04.229Z,101729.22
2022-11-12T17:53:52.917Z,101727.86
2022-11-12T17:56:40.277Z,101734.67
2022-11-12T17:59:28.669Z,101740.71
2022-11-12T18:02:15.054Z,101735.48
2022-11-12T18:05:02.011Z,101731.60
2022-11-12T18:07:48.944Z,101741.41
2022-11-12T18:10:35.723Z,101741.67
2022-11-12T18:13:26.580Z,101734.70
2022-11-12T18:16:25.692Z,101735.08
2022-11-12T18:19:13.386Z,101741.02
2022-11-12T18:22:02.478Z,101744.61
2022-11-12T18:24:49.882Z,101740.10
2022-11-12T18:27:39.973Z,101744.33
2022-11-12T18:30:32.542Z,101741.98
2022-11-12T18:33:20.108Z,101732.75
2022-11-12T18:36:10.222Z,101734.70
2022-11-12T18:38:57.311Z,101742.48
2022-11-12T18:41:44.138Z,101735.02
2022-11-12T18:44:33.041Z,101736.02
2022-11-12T18:47:21.641Z,101735.61
2022-11-12T18:50:09.294Z,101736.05
2022-11-12T18:52:56.564Z,101738.58
2022-11-12T18:55:43.196Z,101736.55
2022-11-12T18:58:34.894Z,101733.21
2022-11-12T19:01:25.351Z,101743.39
2022-11-12T19:04:11.769Z,101748.58
2022-11-12T19:07:00.349Z,101745.83
2022-11-12T19:09:48.751Z,101748.06
2022-11-12T19:12:37.081Z,101748.14
2022-11-12T19:15:26.997Z,101751.52
2022-11-12T19:18:14.754Z,101752.38
2022-11-12T19:21:08.472Z,101749.90
2022-11-12T19:23:57.049Z,101752.66
2022-11-12T19:26:44.001Z,101755.66
2022-11-12T19:29:32.712Z,101754.19
2022-11-12T19:32:21.306Z,101751.77
2022-11-12T19:35:10.270Z,101754.47
2022-11-12T19:38:02.032Z,101759.38
2022-11-12T19:40:50.121Z,101757.02
2022-11-12T19:43:39.022Z,101753.84
2022-11-12T19:46:26.297Z,101760.20
2022-11-12T19:49:13.010Z,101760.48
2022-11-12T19:52:00.312Z,101754.23
2022-11-12T19:54:47.191Z,101758.48
2022-11-12T19:57:33.880Z,101756.89
2022-11-12T20:00:20.989Z,101749.02
2022-11-12T20:03:16.301Z,101756.19
2022-11-12T20:06:14.782Z,101760.96
2022-11-12T20:09:05.961Z,101754.48
2022-11-12T20:11:52.089Z,101750.10
2022-11-12T20:15:09.079Z,101761.02
2022-11-12T20:17:57.091Z,101762.15
2022-11-12T20:20:56.934Z,101755.34
2022-11-12T20:23:45.141Z,101761.98
2022-11-12T20:26:32.141Z,101762.59
2022-11-12T20:29:21.473Z,101762.62
2022-11-12T20:32:09.251Z,101766.50
2022-11-12T20:34:56.941Z,101772.34
2022-11-12T20:37:43.637Z,101770.35
2022-11-12T20:40:32.530Z,101768.40
2022-11-12T20:43:26.585Z,101766.48
2022-11-12T20:46:16.199Z,101765.73
2022-11-12T20:49:06.301Z,101774.09
2022-11-12T20:51:53.892Z,101763.04
2022-11-12T20:54:43.149Z,101761.84
2022-11-12T20:57:30.978Z,101766.95
2022-11-12T21:00:23.961Z,101774.13
2022-11-12T21:03:10.584Z,101771.66
2022-11-12T21:06:04.998Z,101770.80
2022-11-12T21:08:53.221Z,101777.37
2022-11-12T21:11:40.874Z,101773.67
2022-11-12T21:14:28.038Z,101776.50
2022-11-12T21:17:14.717Z,101782.08
2022-11-12T21:20:01.132Z,101785.50
2022-11-12T21:22:47.935Z,101786.64
2022-11-12T21:25:39.411Z,101784.97
2022-11-12T21:28:27.827Z,101780.59
2022-11-12T21:31:28.756Z,101785.00
2022-11-12T21:34:14.795Z,101785.55
2022-11-12T21:37:02.486Z,101786.40
2022-11-12T21:39:49.816Z,101785.11
2022-11-12T21:42:36.877Z,101789.78
2022-11-12T21:45:23.023Z,101789.79
2022-11-12T21:48:09.153Z,101791.19
2022-11-12T21:50:54.914Z,101790.80
2022-11-12T21:53:45.390Z,101783.06
2022-11-12T21:56:33.723Z,101783.48
2022-11-12T21:59:20.651Z,101782.83
2022-11-12T22:02:08.859Z,101777.60
2022-11-12T22:04:54.876Z,101783.89
2022-11-12T22:07:43.639Z,101782.42
2022-11-12T22:10:30.800Z,101787.79
2022-11-12T22:13:32.028Z,101781.41
2022-11-12T22:16:21.675Z,101780.83
2022-11-12T22:19:07.885Z,101781.35
2022-11-12T22:21:56.268Z,101784.46
2022-11-12T22:24:43.029Z,101783.50
2022-11-12T22:27:31.077Z,101783.06
2022-11-12T22:30:17.394Z,101780.64
2022-11-12T22:33:04.390Z,101776.95
2022-11-12T22:35:50.428Z,101782.11
2022-11-12T22:38:38.376Z,101788.77
2022-11-12T22:41:27.438Z,101774.66
2022-11-12T22:44:13.429Z,101774.58
2022-11-12T22:47:01.659Z,101782.10
2022-11-12T22:49:49.542Z,101779.25
2022-11-12T22:52:35.880Z,101776.58
2022-11-12T22:55:23.200Z,101770.24
2022-11-12T22:58:10.784Z,101773.13
2022-11-12T23:00:56.962Z,101779.77
2022-11-12T23:03:43.495Z,101771.16
2022-11-12T23:06:31.897Z,101767.20
2022-11-12T23:09:18.146Z,101761.38
2022-11-12T23:12:04.097Z,101764.31
2022-11-12T23:14:52.425Z,101765.58
2022-11-12T23:17:39.287Z,101770.88
2022-11-12T23:20:25.428Z,101772.83
2022-11-12T23:23:14.045Z,101774.77
2022-11-12T23:26:12.023Z,101772.33
2022-11-12T23:29:01.442Z,101767.91
2022-11-12T23:31:47.186Z,101763.94
2022-11-12T23:34:33.937Z,101761.10
2022-11-12T23:37:19.647Z,101763.80
2022-11-12T23:40:08.158Z,101760.74
2022-11-12T23:42:54.324Z,101760.17
2022-11-12T23:45:40.566Z,101757.10
2022-11-12T23:48:27.931Z,101758.75
2022-11-12T23:51:17.778Z,101761.12
2022-11-12T23:54:04.829Z,101764.05
2022-11-12T23:56:50.616Z,101763.94
2022-11-12T23:59:38.297Z,101763.73
